THY735 VRMM-LTFM
Flight info
| Callsign | THY735 |
|---|---|
| Flight time | N/A |
| Altitude | 36000 |
| Route | LELEM2A LELEM L894 BOLUR/N0497F380 L894 KITAL P570 GOLNI N569 TOKRA DCT MEDPO DCT BOSOB DCT SITUK M321 KSA T503 PAXAN/N0485F400 T503 OVANO L768 FIRAS R655 KTN R785 NIKAS L619 VESAR UB545 MUT DCT OKMOT UT244 EDASA UM855 SISPI |
| Aircraft | B789/H-SDE1E2E3FGHIJ2J3J4J5M1RWXY/LB1D1 |
Departure
| Time | 2026-05-09 03:14 |
|---|---|
| Airport | Velana International Airport (VRMM) |
Arrival
| Time | N/A |
|---|---|
| Airport | İstanbul Airport (LTFM) |
| Time | Latitude | Longitude | Altitude | Speed | Heading |
|---|---|---|---|---|---|
| 2026-05-09 02:52 | 4.18502 | 73.52797 | 18 ft | 0 kts | 269° |
| 2026-05-09 03:06 | 4.18502 | 73.52802 | 18 ft | 3 kts | 269° |
| 2026-05-09 03:06 | 4.18502 | 73.52826 | 18 ft | 2 kts | 269° |
| 2026-05-09 03:06 | 4.18507 | 73.52849 | 19 ft | 4 kts | 223° |
| 2026-05-09 03:06 | 4.18529 | 73.52857 | 13 ft | 4 kts | 178° |
| 2026-05-09 03:07 | 4.18546 | 73.52856 | -2 ft | 1 kts | 178° |
| 2026-05-09 03:07 | 4.18548 | 73.52856 | 24 ft | 0 kts | 178° |
| 2026-05-09 03:10 | 4.18531 | 73.52857 | 18 ft | 3 kts | 178° |
| 2026-05-09 03:10 | 4.18508 | 73.52859 | 18 ft | 4 kts | 165° |
| 2026-05-09 03:10 | 4.18488 | 73.52881 | 18 ft | 7 kts | 110° |
| 2026-05-09 03:11 | 4.18469 | 73.52919 | 18 ft | 6 kts | 142° |
| 2026-05-09 03:11 | 4.18424 | 73.52929 | 18 ft | 9 kts | 181° |
| 2026-05-09 03:11 | 4.18333 | 73.52929 | 18 ft | 14 kts | 180° |
| 2026-05-09 03:11 | 4.18237 | 73.52930 | 18 ft | 13 kts | 179° |
| 2026-05-09 03:12 | 4.18198 | 73.52971 | 18 ft | 8 kts | 101° |
| 2026-05-09 03:12 | 4.18196 | 73.53046 | 18 ft | 13 kts | 90° |
| 2026-05-09 03:12 | 4.18224 | 73.53101 | 18 ft | 8 kts | 23° |
| 2026-05-09 03:12 | 4.18304 | 73.53104 | 18 ft | 25 kts | 360° |
| 2026-05-09 03:13 | 4.19409 | 73.53102 | 18 ft | 131 kts | 0° |
| 2026-05-09 03:13 | 4.20476 | 73.53100 | 21 ft | 174 kts | 359° |
| 2026-05-09 03:13 | 4.21704 | 73.53123 | 386 ft | 179 kts | 1° |
| 2026-05-09 03:14 | 4.22983 | 73.53145 | 928 ft | 187 kts | 356° |
| 2026-05-09 03:14 | 4.24289 | 73.53115 | 1680 ft | 189 kts | 354° |
| 2026-05-09 03:14 | 4.25627 | 73.53079 | 2241 ft | 201 kts | 355° |
| 2026-05-09 03:14 | 4.27091 | 73.53061 | 2655 ft | 219 kts | 356° |
| 2026-05-09 03:15 | 4.28649 | 73.53056 | 3236 ft | 231 kts | 356° |
| 2026-05-09 03:15 | 4.30322 | 73.53071 | 3663 ft | 250 kts | 358° |
| 2026-05-09 03:15 | 4.32157 | 73.53095 | 4009 ft | 273 kts | 358° |
| 2026-05-09 03:15 | 4.34033 | 73.53112 | 5058 ft | 265 kts | 358° |
| 2026-05-09 03:16 | 4.35858 | 73.53107 | 5834 ft | 271 kts | 356° |
| 2026-05-09 03:16 | 4.37762 | 73.53093 | 6616 ft | 273 kts | 358° |
| 2026-05-09 03:16 | 4.39684 | 73.53084 | 7280 ft | 279 kts | 358° |
| 2026-05-09 03:16 | 4.41608 | 73.52965 | 8041 ft | 278 kts | 342° |
| 2026-05-09 03:17 | 4.43318 | 73.52104 | 8784 ft | 276 kts | 322° |
| 2026-05-09 03:17 | 4.44790 | 73.50841 | 9393 ft | 284 kts | 319° |
| 2026-05-09 03:17 | 4.46278 | 73.49543 | 10093 ft | 286 kts | 319° |
| 2026-05-09 03:17 | 4.47842 | 73.48183 | 10197 ft | 311 kts | 319° |
| 2026-05-09 03:18 | 4.49526 | 73.46726 | 10246 ft | 336 kts | 319° |
| 2026-05-09 03:18 | 4.51353 | 73.45143 | 10299 ft | 358 kts | 319° |
| 2026-05-09 03:18 | 4.53278 | 73.43471 | 10610 ft | 369 kts | 319° |
| 2026-05-09 03:18 | 4.55220 | 73.41785 | 11177 ft | 372 kts | 319° |
| 2026-05-09 03:19 | 4.57171 | 73.40093 | 11872 ft | 371 kts | 319° |
| 2026-05-09 03:19 | 4.59137 | 73.38387 | 12313 ft | 377 kts | 319° |
| 2026-05-09 03:19 | 4.61124 | 73.36663 | 12929 ft | 379 kts | 319° |
| 2026-05-09 03:19 | 4.63118 | 73.34933 | 13492 ft | 380 kts | 319° |
| 2026-05-09 03:20 | 4.65103 | 73.33210 | 13978 ft | 384 kts | 319° |
| 2026-05-09 03:20 | 4.67135 | 73.31445 | 14395 ft | 389 kts | 319° |
| 2026-05-09 03:20 | 4.69187 | 73.29664 | 14859 ft | 392 kts | 319° |
| 2026-05-09 03:20 | 4.71251 | 73.27871 | 15394 ft | 393 kts | 319° |
| 2026-05-09 03:21 | 4.73335 | 73.26063 | 15695 ft | 401 kts | 319° |
| 2026-05-09 03:21 | 4.75451 | 73.24224 | 16285 ft | 404 kts | 319° |
| 2026-05-09 03:21 | 4.77582 | 73.22372 | 16965 ft | 407 kts | 319° |
| 2026-05-09 03:21 | 4.79736 | 73.20500 | 17566 ft | 411 kts | 319° |
| 2026-05-09 03:22 | 4.81909 | 73.18612 | 18109 ft | 417 kts | 319° |
| 2026-05-09 03:22 | 4.84085 | 73.16722 | 18603 ft | 420 kts | 319° |
| 2026-05-09 03:22 | 4.86302 | 73.14795 | 19104 ft | 424 kts | 319° |
| 2026-05-09 03:22 | 4.88542 | 73.12848 | 19575 ft | 428 kts | 319° |
| 2026-05-09 03:23 | 4.90797 | 73.10888 | 20061 ft | 431 kts | 319° |
| 2026-05-09 03:23 | 4.93077 | 73.08907 | 20499 ft | 436 kts | 319° |
| 2026-05-09 03:23 | 4.95374 | 73.06909 | 20992 ft | 439 kts | 319° |
| 2026-05-09 03:23 | 4.97690 | 73.04896 | 21414 ft | 443 kts | 319° |
| 2026-05-09 03:24 | 5.00028 | 73.02863 | 21841 ft | 446 kts | 319° |
| 2026-05-09 03:24 | 5.02349 | 73.00844 | 22275 ft | 450 kts | 320° |
| 2026-05-09 03:24 | 5.04724 | 72.98779 | 22702 ft | 453 kts | 320° |
| 2026-05-09 03:24 | 5.07112 | 72.96702 | 23092 ft | 456 kts | 320° |
| 2026-05-09 03:25 | 5.09521 | 72.94607 | 23486 ft | 460 kts | 319° |
| 2026-05-09 03:25 | 5.11936 | 72.92505 | 23879 ft | 460 kts | 320° |
| 2026-05-09 03:25 | 5.14362 | 72.90394 | 24194 ft | 463 kts | 320° |
| 2026-05-09 03:25 | 5.16801 | 72.88272 | 24512 ft | 466 kts | 320° |
| 2026-05-09 03:26 | 5.19256 | 72.86136 | 24810 ft | 468 kts | 320° |
| 2026-05-09 03:26 | 5.21688 | 72.84018 | 25121 ft | 471 kts | 320° |
| 2026-05-09 03:26 | 5.24161 | 72.81866 | 25422 ft | 473 kts | 320° |
| 2026-05-09 03:26 | 5.26655 | 72.79694 | 25719 ft | 475 kts | 320° |
| 2026-05-09 03:27 | 5.29159 | 72.77515 | 26013 ft | 477 kts | 320° |
| 2026-05-09 03:27 | 5.31677 | 72.75322 | 26306 ft | 480 kts | 320° |
| 2026-05-09 03:27 | 5.34204 | 72.73121 | 26566 ft | 483 kts | 320° |
| 2026-05-09 03:27 | 5.36744 | 72.70910 | 26859 ft | 484 kts | 320° |
| 2026-05-09 03:28 | 5.39295 | 72.68687 | 27089 ft | 487 kts | 320° |
| 2026-05-09 03:28 | 5.41862 | 72.66451 | 27339 ft | 490 kts | 320° |
| 2026-05-09 03:28 | 5.44403 | 72.64237 | 27601 ft | 492 kts | 320° |
| 2026-05-09 03:28 | 5.46994 | 72.61982 | 27873 ft | 494 kts | 320° |
| 2026-05-09 03:29 | 5.49592 | 72.59715 | 28125 ft | 495 kts | 320° |
| 2026-05-09 03:29 | 5.52196 | 72.57446 | 28374 ft | 497 kts | 320° |
| 2026-05-09 03:29 | 5.54812 | 72.55167 | 28647 ft | 498 kts | 320° |
| 2026-05-09 03:29 | 5.57432 | 72.52883 | 28870 ft | 501 kts | 320° |
| 2026-05-09 03:30 | 5.60072 | 72.50579 | 29089 ft | 503 kts | 320° |
| 2026-05-09 03:30 | 5.62679 | 72.48304 | 29343 ft | 504 kts | 320° |
| 2026-05-09 03:30 | 5.65335 | 72.45991 | 29506 ft | 507 kts | 320° |
| 2026-05-09 03:30 | 5.67998 | 72.43670 | 29788 ft | 508 kts | 320° |
| 2026-05-09 03:31 | 5.70674 | 72.41334 | 29911 ft | 511 kts | 320° |
| 2026-05-09 03:31 | 5.73358 | 72.38992 | 30116 ft | 513 kts | 320° |
| 2026-05-09 03:31 | 5.76056 | 72.36638 | 30295 ft | 514 kts | 320° |
| 2026-05-09 03:31 | 5.78760 | 72.34280 | 30526 ft | 514 kts | 320° |
| 2026-05-09 03:32 | 5.81464 | 72.31918 | 30694 ft | 516 kts | 320° |
| 2026-05-09 03:32 | 5.84138 | 72.29585 | 30816 ft | 518 kts | 320° |
| 2026-05-09 03:32 | 5.86859 | 72.27209 | 31004 ft | 519 kts | 320° |
| 2026-05-09 03:32 | 5.89583 | 72.24830 | 31185 ft | 519 kts | 320° |
| 2026-05-09 03:33 | 5.92317 | 72.22442 | 31348 ft | 521 kts | 320° |
| 2026-05-09 03:33 | 5.95051 | 72.20055 | 31576 ft | 520 kts | 320° |
| 2026-05-09 03:33 | 5.97778 | 72.17674 | 31816 ft | 520 kts | 320° |
| 2026-05-09 03:33 | 6.00504 | 72.15293 | 32065 ft | 519 kts | 320° |
| 2026-05-09 03:34 | 6.03229 | 72.12911 | 32298 ft | 519 kts | 320° |
| 2026-05-09 03:34 | 6.05912 | 72.10567 | 32534 ft | 518 kts | 320° |
| 2026-05-09 03:34 | 6.08632 | 72.08190 | 32781 ft | 517 kts | 320° |
| 2026-05-09 03:34 | 6.11346 | 72.05819 | 33030 ft | 517 kts | 320° |
| 2026-05-09 03:35 | 6.14055 | 72.03450 | 33273 ft | 516 kts | 320° |
| 2026-05-09 03:35 | 6.16762 | 72.01084 | 33535 ft | 515 kts | 320° |
| 2026-05-09 03:35 | 6.19465 | 71.98720 | 33813 ft | 514 kts | 320° |
| 2026-05-09 03:35 | 6.22158 | 71.96365 | 34023 ft | 514 kts | 320° |
| 2026-05-09 03:36 | 6.24819 | 71.94038 | 34230 ft | 513 kts | 320° |
| 2026-05-09 03:36 | 6.27510 | 71.91684 | 34438 ft | 513 kts | 320° |
| 2026-05-09 03:36 | 6.30205 | 71.89326 | 34577 ft | 514 kts | 321° |
| 2026-05-09 03:36 | 6.32904 | 71.86965 | 34717 ft | 515 kts | 321° |
| 2026-05-09 03:37 | 6.35609 | 71.84598 | 34924 ft | 515 kts | 321° |
| 2026-05-09 03:37 | 6.38361 | 71.82305 | 35113 ft | 513 kts | 324° |
| 2026-05-09 03:37 | 6.41188 | 71.80111 | 35270 ft | 514 kts | 324° |
| 2026-05-09 03:37 | 6.43999 | 71.77895 | 35477 ft | 513 kts | 323° |
| 2026-05-09 03:38 | 6.46773 | 71.75711 | 35677 ft | 513 kts | 324° |
| 2026-05-09 03:38 | 6.49586 | 71.73516 | 35889 ft | 512 kts | 324° |
| 2026-05-09 03:38 | 6.55252 | 71.69085 | 35892 ft | 519 kts | 324° |
| 2026-05-09 03:39 | 6.60921 | 71.64637 | 35893 ft | 515 kts | 324° |
| 2026-05-09 03:39 | 6.66565 | 71.60219 | 35890 ft | 514 kts | 324° |
| 2026-05-09 03:40 | 6.72165 | 71.55826 | 35896 ft | 514 kts | 324° |
| 2026-05-09 03:40 | 6.77819 | 71.51394 | 35890 ft | 517 kts | 324° |
| 2026-05-09 03:41 | 6.83492 | 71.46943 | 35895 ft | 517 kts | 324° |
| 2026-05-09 03:41 | 6.89127 | 71.42522 | 35895 ft | 516 kts | 324° |
| 2026-05-09 03:42 | 6.94775 | 71.38088 | 35891 ft | 514 kts | 324° |
| 2026-05-09 03:42 | 7.00416 | 71.33661 | 35893 ft | 514 kts | 324° |
| 2026-05-09 03:43 | 7.06055 | 71.29232 | 35892 ft | 514 kts | 324° |
| 2026-05-09 03:43 | 7.11656 | 71.24831 | 35894 ft | 514 kts | 324° |
| 2026-05-09 03:44 | 7.17298 | 71.20397 | 35895 ft | 515 kts | 324° |
| 2026-05-09 03:44 | 7.22953 | 71.15951 | 35885 ft | 518 kts | 324° |
| 2026-05-09 03:45 | 7.28657 | 71.11467 | 35892 ft | 521 kts | 324° |
| 2026-05-09 03:45 | 7.34324 | 71.07008 | 35894 ft | 520 kts | 324° |
| 2026-05-09 03:46 | 7.40020 | 71.02526 | 35893 ft | 520 kts | 324° |
| 2026-05-09 03:46 | 7.45715 | 70.98042 | 35892 ft | 519 kts | 324° |
| 2026-05-09 03:47 | 7.51405 | 70.93562 | 35892 ft | 519 kts | 324° |
| 2026-05-09 03:47 | 7.57052 | 70.89107 | 35892 ft | 519 kts | 324° |
| 2026-05-09 03:48 | 7.62734 | 70.84624 | 35886 ft | 518 kts | 324° |
| 2026-05-09 03:48 | 7.68399 | 70.80154 | 35883 ft | 517 kts | 324° |
| 2026-05-09 03:49 | 7.79308 | 70.71540 | 35888 ft | 518 kts | 324° |
| 2026-05-09 03:49 | 7.99721 | 70.55404 | 36041 ft | 518 kts | 324° |
| 2026-05-09 03:49 | 8.12415 | 70.45367 | 35907 ft | 521 kts | 324° |
| 2026-05-09 03:50 | 8.18121 | 70.40840 | 35904 ft | 522 kts | 324° |
| 2026-05-09 03:50 | 8.26430 | 70.34263 | 35892 ft | 521 kts | 324° |
| 2026-05-09 03:51 | 8.49243 | 70.16174 | 35895 ft | 522 kts | 324° |
| 2026-05-09 03:51 | 8.72100 | 69.98022 | 35888 ft | 522 kts | 323° |
| 2026-05-09 03:52 | 8.94452 | 69.80244 | 35896 ft | 520 kts | 323° |
| 2026-05-09 03:52 | 9.17187 | 69.62132 | 35900 ft | 520 kts | 323° |
| 2026-05-09 03:53 | 9.39873 | 69.44027 | 35905 ft | 519 kts | 322° |
| 2026-05-09 03:53 | 9.62525 | 69.25919 | 35900 ft | 517 kts | 322° |
| 2026-05-09 03:54 | 9.84978 | 69.07930 | 35905 ft | 518 kts | 322° |
| 2026-05-09 03:54 | 10.07528 | 68.89823 | 35906 ft | 517 kts | 322° |
| 2026-05-09 03:55 | 10.30061 | 68.71696 | 35910 ft | 515 kts | 322° |
| 2026-05-09 03:55 | 10.52536 | 68.53582 | 35913 ft | 516 kts | 322° |
| 2026-05-09 03:56 | 10.74783 | 68.35617 | 35909 ft | 513 kts | 322° |
| 2026-05-09 03:56 | 10.97137 | 68.17530 | 35907 ft | 513 kts | 322° |
| 2026-05-09 03:57 | 11.22360 | 67.97084 | 35905 ft | 512 kts | 322° |
| 2026-05-09 03:57 | 11.53024 | 67.72153 | 35925 ft | 513 kts | 322° |
| 2026-05-09 03:58 | 11.93846 | 67.38850 | 35925 ft | 512 kts | 321° |
| 2026-05-09 03:58 | 12.38320 | 67.02463 | 35933 ft | 513 kts | 321° |
| 2026-05-09 03:59 | 12.60531 | 66.84168 | 36070 ft | 510 kts | 321° |
| 2026-05-09 03:59 | 12.82708 | 66.65962 | 35873 ft | 514 kts | 321° |
| 2026-05-09 03:59 | 13.04873 | 66.47658 | 36114 ft | 508 kts | 321° |
| 2026-05-09 03:59 | 13.26938 | 66.29363 | 35856 ft | 512 kts | 321° |
| 2026-05-09 04:00 | 13.45587 | 66.13928 | 36047 ft | 511 kts | 321° |
| 2026-05-09 04:00 | 13.48327 | 66.11668 | 35934 ft | 513 kts | 321° |
| 2026-05-09 04:00 | 13.53843 | 66.07071 | 35934 ft | 508 kts | 321° |
| 2026-05-09 04:01 | 13.59369 | 66.02488 | 35932 ft | 512 kts | 321° |
| 2026-05-09 04:01 | 13.64882 | 65.97900 | 35936 ft | 511 kts | 321° |
| 2026-05-09 04:02 | 13.70364 | 65.93341 | 35929 ft | 509 kts | 321° |
| 2026-05-09 04:02 | 13.75883 | 65.88746 | 35936 ft | 513 kts | 321° |
| 2026-05-09 04:03 | 13.81404 | 65.84147 | 35935 ft | 509 kts | 321° |
| 2026-05-09 04:03 | 13.86927 | 65.79543 | 35937 ft | 513 kts | 321° |
| 2026-05-09 04:04 | 13.92476 | 65.74915 | 35938 ft | 514 kts | 321° |
| 2026-05-09 04:04 | 13.97961 | 65.70337 | 35939 ft | 509 kts | 321° |
| 2026-05-09 04:05 | 14.03463 | 65.65742 | 35933 ft | 511 kts | 321° |
| 2026-05-09 04:05 | 14.08986 | 65.61127 | 35936 ft | 508 kts | 321° |
| 2026-05-09 04:06 | 14.14465 | 65.56545 | 35938 ft | 507 kts | 321° |
| 2026-05-09 04:06 | 14.19925 | 65.51977 | 35938 ft | 510 kts | 321° |
| 2026-05-09 04:07 | 14.25450 | 65.47351 | 35941 ft | 511 kts | 321° |
| 2026-05-09 04:07 | 14.30947 | 65.42745 | 35937 ft | 511 kts | 321° |
| 2026-05-09 04:08 | 14.36473 | 65.38113 | 35946 ft | 512 kts | 321° |
| 2026-05-09 04:08 | 14.41976 | 65.33496 | 35941 ft | 514 kts | 321° |
| 2026-05-09 04:09 | 14.47483 | 65.28873 | 35937 ft | 508 kts | 321° |
| 2026-05-09 04:09 | 14.52985 | 65.24252 | 35938 ft | 512 kts | 321° |
| 2026-05-09 04:10 | 14.58493 | 65.19622 | 35939 ft | 509 kts | 321° |
| 2026-05-09 04:10 | 14.63931 | 65.15045 | 35939 ft | 507 kts | 321° |
| 2026-05-09 04:11 | 14.69419 | 65.10422 | 35937 ft | 512 kts | 321° |
| 2026-05-09 04:11 | 14.74943 | 65.05767 | 35942 ft | 511 kts | 321° |
| 2026-05-09 04:12 | 14.80434 | 65.01136 | 35938 ft | 510 kts | 321° |
| 2026-05-09 04:12 | 14.85921 | 64.96506 | 35937 ft | 515 kts | 321° |
| 2026-05-09 04:13 | 14.91447 | 64.91839 | 35934 ft | 510 kts | 321° |
| 2026-05-09 04:13 | 14.96950 | 64.87189 | 35933 ft | 509 kts | 321° |
| 2026-05-09 04:14 | 15.02436 | 64.82549 | 35934 ft | 512 kts | 321° |
| 2026-05-09 04:14 | 15.07907 | 64.77920 | 35937 ft | 509 kts | 321° |
| 2026-05-09 04:15 | 15.13391 | 64.73276 | 35955 ft | 512 kts | 321° |
| 2026-05-09 04:15 | 15.16138 | 64.70949 | 36255 ft | 509 kts | 321° |
| 2026-05-09 04:15 | 15.18875 | 64.68629 | 36468 ft | 509 kts | 321° |
| 2026-05-09 04:16 | 15.24369 | 64.63969 | 36749 ft | 511 kts | 321° |
| 2026-05-09 04:16 | 15.27114 | 64.61642 | 37049 ft | 509 kts | 321° |
| 2026-05-09 04:16 | 15.29848 | 64.59322 | 37262 ft | 508 kts | 321° |
| 2026-05-09 04:17 | 15.32554 | 64.57024 | 37375 ft | 510 kts | 321° |
| 2026-05-09 04:17 | 15.35287 | 64.54702 | 37577 ft | 509 kts | 321° |
| 2026-05-09 04:17 | 15.38033 | 64.52369 | 37748 ft | 510 kts | 321° |
| 2026-05-09 04:17 | 15.40773 | 64.50041 | 37941 ft | 509 kts | 321° |
| 2026-05-09 04:18 | 15.46268 | 64.45368 | 37928 ft | 510 kts | 321° |
| 2026-05-09 04:18 | 15.51719 | 64.40730 | 37926 ft | 505 kts | 321° |
| 2026-05-09 04:19 | 15.57110 | 64.36138 | 37929 ft | 506 kts | 321° |
| 2026-05-09 04:19 | 15.62549 | 64.31504 | 37925 ft | 504 kts | 321° |
| 2026-05-09 04:20 | 15.67949 | 64.26899 | 37928 ft | 503 kts | 321° |
| 2026-05-09 04:20 | 15.73324 | 64.22313 | 37933 ft | 504 kts | 321° |
| 2026-05-09 04:21 | 15.78746 | 64.17682 | 37935 ft | 506 kts | 321° |
| 2026-05-09 04:22 | 15.86871 | 64.10737 | 37935 ft | 503 kts | 321° |
| 2026-05-09 04:22 | 15.92296 | 64.06097 | 37940 ft | 505 kts | 321° |
| 2026-05-09 04:23 | 15.97668 | 64.01497 | 37936 ft | 503 kts | 321° |
| 2026-05-09 04:23 | 16.03066 | 63.96873 | 37939 ft | 502 kts | 321° |
| 2026-05-09 04:24 | 16.08440 | 63.92265 | 37924 ft | 499 kts | 321° |
| 2026-05-09 04:24 | 16.13821 | 63.87649 | 37930 ft | 503 kts | 321° |
| 2026-05-09 04:25 | 16.19170 | 63.83056 | 37930 ft | 501 kts | 321° |
| 2026-05-09 04:25 | 16.24538 | 63.78444 | 37929 ft | 499 kts | 321° |
| 2026-05-09 04:26 | 16.29890 | 63.73842 | 37931 ft | 500 kts | 321° |
| 2026-05-09 04:26 | 16.35253 | 63.69227 | 37931 ft | 499 kts | 321° |
| 2026-05-09 04:27 | 16.40569 | 63.64649 | 37932 ft | 499 kts | 321° |
| 2026-05-09 04:27 | 16.45912 | 63.60045 | 37930 ft | 498 kts | 321° |
| 2026-05-09 04:28 | 16.51267 | 63.55428 | 37933 ft | 500 kts | 321° |
| 2026-05-09 04:28 | 16.56633 | 63.50796 | 37938 ft | 501 kts | 321° |
| 2026-05-09 04:29 | 16.61952 | 63.46203 | 37925 ft | 499 kts | 320° |
| 2026-05-09 04:29 | 16.67264 | 63.41611 | 37930 ft | 494 kts | 320° |
| 2026-05-09 04:30 | 16.72546 | 63.37042 | 37935 ft | 493 kts | 320° |
| 2026-05-09 04:30 | 16.77835 | 63.32464 | 37936 ft | 495 kts | 320° |
| 2026-05-09 04:31 | 16.83101 | 63.27903 | 37941 ft | 496 kts | 320° |
| 2026-05-09 04:31 | 16.88410 | 63.23301 | 37945 ft | 496 kts | 320° |
| 2026-05-09 04:32 | 16.93721 | 63.18693 | 37944 ft | 496 kts | 320° |
| 2026-05-09 04:32 | 16.99025 | 63.14088 | 37948 ft | 495 kts | 320° |
| 2026-05-09 04:33 | 17.04199 | 63.09418 | 37945 ft | 494 kts | 319° |
| 2026-05-09 04:33 | 17.09437 | 63.04755 | 37945 ft | 495 kts | 319° |
| 2026-05-09 04:34 | 17.14610 | 63.00006 | 37950 ft | 495 kts | 319° |
| 2026-05-09 04:34 | 17.19808 | 62.95307 | 37951 ft | 493 kts | 319° |
| 2026-05-09 04:35 | 17.24932 | 62.90632 | 37949 ft | 491 kts | 319° |
| 2026-05-09 04:35 | 17.30096 | 62.85936 | 37948 ft | 493 kts | 319° |
| 2026-05-09 04:36 | 17.35276 | 62.81215 | 37951 ft | 494 kts | 319° |
| 2026-05-09 04:36 | 17.40460 | 62.76489 | 37955 ft | 493 kts | 319° |
| 2026-05-09 04:37 | 17.45592 | 62.71806 | 37948 ft | 492 kts | 319° |
| 2026-05-09 04:37 | 17.50751 | 62.67094 | 37953 ft | 493 kts | 319° |
| 2026-05-09 04:38 | 17.55929 | 62.62362 | 37959 ft | 495 kts | 319° |
| 2026-05-09 04:38 | 17.61114 | 62.57619 | 37954 ft | 494 kts | 319° |
| 2026-05-09 04:39 | 17.66251 | 62.52916 | 37949 ft | 492 kts | 319° |
| 2026-05-09 04:39 | 17.71412 | 62.48188 | 37953 ft | 493 kts | 319° |
| 2026-05-09 04:40 | 17.76561 | 62.43468 | 37949 ft | 490 kts | 318° |
| 2026-05-09 04:40 | 17.81693 | 62.38758 | 37948 ft | 490 kts | 319° |
| 2026-05-09 04:41 | 17.86806 | 62.34063 | 37948 ft | 493 kts | 319° |
| 2026-05-09 04:41 | 17.91969 | 62.29317 | 37954 ft | 492 kts | 318° |
| 2026-05-09 04:42 | 17.97104 | 62.24594 | 37943 ft | 490 kts | 318° |
| 2026-05-09 04:42 | 18.02236 | 62.19870 | 37952 ft | 492 kts | 318° |
| 2026-05-09 04:43 | 18.07345 | 62.15164 | 37944 ft | 491 kts | 318° |
| 2026-05-09 04:43 | 18.12479 | 62.10430 | 37948 ft | 490 kts | 318° |
| 2026-05-09 04:44 | 18.17606 | 62.05699 | 37943 ft | 491 kts | 318° |
| 2026-05-09 04:44 | 18.22751 | 62.00947 | 37948 ft | 493 kts | 318° |
| 2026-05-09 04:45 | 18.27897 | 61.96191 | 37947 ft | 492 kts | 318° |
| 2026-05-09 04:45 | 18.32993 | 61.91477 | 37948 ft | 490 kts | 318° |
| 2026-05-09 04:46 | 18.38119 | 61.86731 | 37947 ft | 492 kts | 318° |
| 2026-05-09 04:46 | 18.43263 | 61.81965 | 37948 ft | 492 kts | 318° |
| 2026-05-09 04:47 | 18.48411 | 61.77192 | 37955 ft | 494 kts | 318° |
| 2026-05-09 04:47 | 18.53542 | 61.72429 | 37958 ft | 495 kts | 318° |
| 2026-05-09 04:48 | 18.58699 | 61.67639 | 37946 ft | 494 kts | 318° |
| 2026-05-09 04:48 | 18.63843 | 61.62857 | 37946 ft | 492 kts | 317° |
| 2026-05-09 04:49 | 18.68966 | 61.58090 | 37942 ft | 491 kts | 318° |
| 2026-05-09 04:49 | 18.74056 | 61.53351 | 37941 ft | 491 kts | 317° |
| 2026-05-09 04:50 | 18.79172 | 61.48582 | 37947 ft | 491 kts | 317° |
| 2026-05-09 04:50 | 18.84296 | 61.43802 | 37947 ft | 493 kts | 318° |
| 2026-05-09 04:51 | 18.89430 | 61.39010 | 37936 ft | 492 kts | 318° |
| 2026-05-09 04:51 | 18.94526 | 61.34249 | 37938 ft | 492 kts | 317° |
| 2026-05-09 04:52 | 18.99642 | 61.29464 | 37942 ft | 491 kts | 317° |
| 2026-05-09 04:52 | 19.04760 | 61.24673 | 37942 ft | 492 kts | 317° |
| 2026-05-09 04:53 | 19.09876 | 61.19880 | 37933 ft | 491 kts | 317° |
| 2026-05-09 04:53 | 19.14985 | 61.15091 | 37930 ft | 491 kts | 317° |
| 2026-05-09 04:54 | 19.20060 | 61.10329 | 37934 ft | 492 kts | 317° |
| 2026-05-09 04:54 | 19.25169 | 61.05529 | 37929 ft | 491 kts | 317° |
| 2026-05-09 04:55 | 19.30291 | 61.00716 | 37924 ft | 494 kts | 317° |
| 2026-05-09 04:55 | 19.35424 | 60.95886 | 37927 ft | 494 kts | 317° |
| 2026-05-09 04:56 | 19.40520 | 60.91089 | 37929 ft | 492 kts | 317° |
| 2026-05-09 04:56 | 19.45630 | 60.86271 | 37927 ft | 491 kts | 317° |
| 2026-05-09 04:57 | 19.50734 | 60.81456 | 37926 ft | 492 kts | 317° |
| 2026-05-09 04:57 | 19.55773 | 60.76700 | 37930 ft | 494 kts | 317° |
| 2026-05-09 04:58 | 19.60961 | 60.71797 | 37931 ft | 495 kts | 317° |
| 2026-05-09 04:58 | 19.66109 | 60.66927 | 37929 ft | 496 kts | 317° |
| 2026-05-09 04:59 | 19.71252 | 60.62060 | 37923 ft | 495 kts | 317° |
| 2026-05-09 04:59 | 19.76393 | 60.57188 | 37921 ft | 495 kts | 317° |
| 2026-05-09 05:00 | 19.81495 | 60.52350 | 37918 ft | 496 kts | 317° |
| 2026-05-09 05:00 | 19.86641 | 60.47464 | 37920 ft | 496 kts | 317° |
| 2026-05-09 05:01 | 19.91792 | 60.42572 | 37915 ft | 497 kts | 316° |
| 2026-05-09 05:01 | 19.96948 | 60.37666 | 37920 ft | 498 kts | 316° |
| 2026-05-09 05:02 | 20.02073 | 60.32791 | 37914 ft | 497 kts | 316° |
| 2026-05-09 05:02 | 20.07570 | 60.28362 | 37924 ft | 497 kts | 328° |
| 2026-05-09 05:03 | 20.13526 | 60.24604 | 37912 ft | 498 kts | 327° |
| 2026-05-09 05:03 | 20.18472 | 60.21466 | 37913 ft | 498 kts | 327° |
| 2026-05-09 05:04 | 20.25376 | 60.17081 | 37914 ft | 497 kts | 328° |
| 2026-05-09 05:04 | 20.31318 | 60.13309 | 37911 ft | 496 kts | 327° |
| 2026-05-09 05:05 | 20.36239 | 60.10176 | 37908 ft | 495 kts | 327° |
| 2026-05-09 05:05 | 20.42153 | 60.06414 | 37906 ft | 495 kts | 328° |
| 2026-05-09 05:06 | 20.49035 | 60.02028 | 37906 ft | 497 kts | 328° |
| 2026-05-09 05:06 | 20.53967 | 59.98886 | 37907 ft | 497 kts | 327° |
| 2026-05-09 05:07 | 20.59887 | 59.95106 | 37906 ft | 495 kts | 328° |
| 2026-05-09 05:07 | 20.65784 | 59.91342 | 37903 ft | 493 kts | 327° |
| 2026-05-09 05:08 | 20.72626 | 59.86967 | 37906 ft | 494 kts | 327° |
| 2026-05-09 05:08 | 20.77524 | 59.83831 | 37909 ft | 494 kts | 327° |
| 2026-05-09 05:09 | 20.83419 | 59.80056 | 37906 ft | 494 kts | 327° |
| 2026-05-09 05:09 | 20.89300 | 59.76287 | 37899 ft | 492 kts | 327° |
| 2026-05-09 05:10 | 20.95156 | 59.72509 | 37894 ft | 491 kts | 324° |
| 2026-05-09 05:10 | 20.97803 | 59.70224 | 37914 ft | 489 kts | 312° |
| 2026-05-09 05:10 | 20.99967 | 59.67502 | 37923 ft | 487 kts | 302° |
| 2026-05-09 05:10 | 21.01649 | 59.64358 | 37925 ft | 487 kts | 291° |
| 2026-05-09 05:11 | 21.02795 | 59.60963 | 37925 ft | 485 kts | 286° |
| 2026-05-09 05:11 | 21.04830 | 59.54071 | 37902 ft | 486 kts | 286° |
| 2026-05-09 05:12 | 21.06844 | 59.47164 | 37900 ft | 485 kts | 286° |
| 2026-05-09 05:12 | 21.08867 | 59.40270 | 37894 ft | 485 kts | 286° |
| 2026-05-09 05:13 | 21.10863 | 59.33422 | 37889 ft | 485 kts | 286° |
| 2026-05-09 05:13 | 21.12877 | 59.26521 | 37892 ft | 486 kts | 286° |
| 2026-05-09 05:14 | 21.14893 | 59.19592 | 37893 ft | 488 kts | 286° |
| 2026-05-09 05:14 | 21.16908 | 59.12659 | 37887 ft | 487 kts | 286° |
| 2026-05-09 05:15 | 21.18915 | 59.05740 | 37882 ft | 486 kts | 286° |
| 2026-05-09 05:15 | 21.20904 | 58.98875 | 37876 ft | 486 kts | 285° |
| 2026-05-09 05:16 | 21.22902 | 58.91960 | 37888 ft | 485 kts | 285° |
| 2026-05-09 05:16 | 21.24894 | 58.85061 | 37886 ft | 485 kts | 285° |
| 2026-05-09 05:17 | 21.26884 | 58.78155 | 37892 ft | 485 kts | 285° |
| 2026-05-09 05:17 | 21.28854 | 58.71304 | 37888 ft | 484 kts | 285° |
| 2026-05-09 05:18 | 21.30836 | 58.64396 | 37885 ft | 485 kts | 285° |
| 2026-05-09 05:18 | 21.32816 | 58.57487 | 37886 ft | 484 kts | 285° |
| 2026-05-09 05:19 | 21.34779 | 58.50623 | 37889 ft | 484 kts | 285° |
| 2026-05-09 05:19 | 21.36753 | 58.43712 | 37883 ft | 486 kts | 285° |
| 2026-05-09 05:20 | 21.38729 | 58.36778 | 37885 ft | 486 kts | 285° |
| 2026-05-09 05:20 | 21.40701 | 58.29850 | 37884 ft | 485 kts | 285° |
| 2026-05-09 05:21 | 21.42653 | 58.22981 | 37883 ft | 484 kts | 285° |
| 2026-05-09 05:21 | 21.44614 | 58.16064 | 37885 ft | 485 kts | 285° |
| 2026-05-09 05:22 | 21.46579 | 58.09125 | 37885 ft | 487 kts | 285° |
| 2026-05-09 05:22 | 21.48548 | 58.02160 | 37889 ft | 487 kts | 285° |
| 2026-05-09 05:23 | 21.50497 | 57.95250 | 37887 ft | 486 kts | 284° |
| 2026-05-09 05:23 | 21.52455 | 57.88299 | 37884 ft | 486 kts | 284° |
| 2026-05-09 05:24 | 21.54411 | 57.81342 | 37888 ft | 487 kts | 284° |
| 2026-05-09 05:24 | 21.56367 | 57.74376 | 37884 ft | 485 kts | 284° |
| 2026-05-09 05:25 | 21.58293 | 57.67500 | 37882 ft | 483 kts | 284° |
| 2026-05-09 05:25 | 21.61191 | 57.57118 | 37882 ft | 484 kts | 284° |
| 2026-05-09 05:26 | 21.63122 | 57.50184 | 37884 ft | 484 kts | 284° |
| 2026-05-09 05:26 | 21.65039 | 57.43290 | 37884 ft | 485 kts | 284° |
| 2026-05-09 05:27 | 21.66967 | 57.36342 | 37887 ft | 485 kts | 284° |
| 2026-05-09 05:27 | 21.68896 | 57.29379 | 37888 ft | 486 kts | 284° |
| 2026-05-09 05:28 | 21.70823 | 57.22410 | 37893 ft | 487 kts | 284° |
| 2026-05-09 05:28 | 21.72751 | 57.15426 | 37891 ft | 487 kts | 284° |
| 2026-05-09 05:29 | 21.74658 | 57.08498 | 37896 ft | 485 kts | 283° |
| 2026-05-09 05:29 | 21.76564 | 57.01556 | 37892 ft | 483 kts | 283° |
| 2026-05-09 05:30 | 21.78466 | 56.94622 | 37884 ft | 483 kts | 283° |
| 2026-05-09 05:30 | 21.80365 | 56.87682 | 37885 ft | 484 kts | 283° |
| 2026-05-09 05:31 | 21.82253 | 56.80775 | 37893 ft | 485 kts | 283° |
| 2026-05-09 05:31 | 21.84150 | 56.73816 | 37894 ft | 485 kts | 283° |
| 2026-05-09 05:32 | 21.86047 | 56.66850 | 37899 ft | 485 kts | 283° |
| 2026-05-09 05:32 | 21.87936 | 56.59905 | 37891 ft | 483 kts | 283° |
| 2026-05-09 05:33 | 21.89803 | 56.53025 | 37898 ft | 481 kts | 283° |
| 2026-05-09 05:33 | 21.91677 | 56.46105 | 37898 ft | 482 kts | 283° |
| 2026-05-09 05:34 | 21.93556 | 56.39160 | 37904 ft | 484 kts | 283° |
| 2026-05-09 05:34 | 21.95435 | 56.32197 | 37907 ft | 485 kts | 283° |
| 2026-05-09 05:35 | 21.97308 | 56.25224 | 37897 ft | 484 kts | 283° |
| 2026-05-09 05:35 | 21.99161 | 56.18322 | 37895 ft | 482 kts | 283° |
| 2026-05-09 05:36 | 22.01016 | 56.11396 | 37897 ft | 481 kts | 283° |
| 2026-05-09 05:36 | 22.02866 | 56.04479 | 37895 ft | 481 kts | 283° |
| 2026-05-09 05:37 | 22.04728 | 55.97548 | 37898 ft | 482 kts | 283° |
| 2026-05-09 05:37 | 22.06574 | 55.90646 | 37904 ft | 483 kts | 283° |
| 2026-05-09 05:38 | 22.08437 | 55.83676 | 37904 ft | 484 kts | 283° |
| 2026-05-09 05:38 | 22.10297 | 55.76704 | 37899 ft | 483 kts | 282° |
| 2026-05-09 05:39 | 22.12131 | 55.69814 | 37897 ft | 480 kts | 282° |
| 2026-05-09 05:39 | 22.13970 | 55.62892 | 37897 ft | 480 kts | 282° |
| 2026-05-09 05:40 | 22.15677 | 55.55946 | 37924 ft | 475 kts | 275° |
| 2026-05-09 05:40 | 22.16325 | 55.48866 | 37906 ft | 474 kts | 272° |
| 2026-05-09 05:41 | 22.16894 | 55.41843 | 37907 ft | 472 kts | 272° |
| 2026-05-09 05:41 | 22.17478 | 55.34787 | 37908 ft | 472 kts | 272° |
| 2026-05-09 05:42 | 22.18052 | 55.27719 | 37912 ft | 473 kts | 272° |
| 2026-05-09 05:42 | 22.18627 | 55.20648 | 37908 ft | 473 kts | 272° |
| 2026-05-09 05:43 | 22.19197 | 55.13580 | 37908 ft | 474 kts | 272° |
| 2026-05-09 05:43 | 22.19763 | 55.06538 | 37904 ft | 475 kts | 272° |
| 2026-05-09 05:44 | 22.20329 | 54.99444 | 37909 ft | 474 kts | 271° |
| 2026-05-09 05:44 | 22.20891 | 54.92366 | 37912 ft | 473 kts | 271° |
| 2026-05-09 05:45 | 22.21444 | 54.85356 | 37906 ft | 472 kts | 271° |
| 2026-05-09 05:45 | 22.21999 | 54.78291 | 37922 ft | 472 kts | 271° |
| 2026-05-09 05:46 | 22.22549 | 54.71261 | 37903 ft | 468 kts | 271° |
| 2026-05-09 05:46 | 22.23091 | 54.64249 | 37906 ft | 470 kts | 271° |
| 2026-05-09 05:47 | 22.23632 | 54.57255 | 37906 ft | 471 kts | 271° |
| 2026-05-09 05:47 | 22.24173 | 54.50216 | 37912 ft | 471 kts | 271° |
| 2026-05-09 05:48 | 22.24710 | 54.43181 | 37905 ft | 470 kts | 271° |
| 2026-05-09 05:48 | 22.25243 | 54.36149 | 37910 ft | 471 kts | 271° |
| 2026-05-09 05:49 | 22.25772 | 54.29147 | 37910 ft | 471 kts | 271° |
| 2026-05-09 05:49 | 22.26300 | 54.22106 | 37906 ft | 470 kts | 271° |
| 2026-05-09 05:50 | 22.26824 | 54.15082 | 37910 ft | 469 kts | 271° |
| 2026-05-09 05:50 | 22.27344 | 54.08077 | 37910 ft | 468 kts | 271° |
| 2026-05-09 05:51 | 22.27857 | 54.01120 | 37910 ft | 469 kts | 271° |
| 2026-05-09 05:51 | 22.28371 | 53.94097 | 37913 ft | 470 kts | 271° |
| 2026-05-09 05:52 | 22.28884 | 53.87063 | 37907 ft | 470 kts | 271° |
| 2026-05-09 05:52 | 22.29393 | 53.80030 | 37913 ft | 470 kts | 271° |
| 2026-05-09 05:53 | 22.29896 | 53.73051 | 37907 ft | 470 kts | 271° |
| 2026-05-09 05:53 | 22.30399 | 53.66015 | 37910 ft | 470 kts | 271° |
| 2026-05-09 05:54 | 22.30901 | 53.58962 | 37909 ft | 471 kts | 271° |
| 2026-05-09 05:54 | 22.31399 | 53.51909 | 37915 ft | 471 kts | 271° |
| 2026-05-09 05:55 | 22.31891 | 53.44918 | 37907 ft | 470 kts | 271° |
| 2026-05-09 05:55 | 22.32381 | 53.37892 | 37904 ft | 469 kts | 271° |
| 2026-05-09 05:56 | 22.32868 | 53.30877 | 37908 ft | 468 kts | 271° |
| 2026-05-09 05:56 | 22.33351 | 53.23855 | 37916 ft | 469 kts | 271° |
| 2026-05-09 05:57 | 22.33831 | 53.16861 | 37919 ft | 470 kts | 271° |
| 2026-05-09 05:57 | 22.34310 | 53.09827 | 37919 ft | 469 kts | 271° |
| 2026-05-09 05:58 | 22.34784 | 53.02806 | 37924 ft | 468 kts | 271° |
| 2026-05-09 05:58 | 22.35253 | 52.95838 | 37931 ft | 469 kts | 271° |
| 2026-05-09 05:59 | 22.35722 | 52.88815 | 37928 ft | 469 kts | 271° |
| 2026-05-09 05:59 | 22.36188 | 52.81783 | 37935 ft | 470 kts | 271° |
| 2026-05-09 06:00 | 22.36653 | 52.74740 | 37936 ft | 470 kts | 271° |
| 2026-05-09 06:00 | 22.37109 | 52.67760 | 37934 ft | 468 kts | 271° |
| 2026-05-09 06:01 | 22.37565 | 52.60743 | 37934 ft | 468 kts | 271° |
| 2026-05-09 06:01 | 22.38018 | 52.53732 | 37940 ft | 468 kts | 271° |
| 2026-05-09 06:02 | 22.38468 | 52.46721 | 37938 ft | 467 kts | 271° |
| 2026-05-09 06:02 | 22.38911 | 52.39770 | 37941 ft | 467 kts | 271° |
| 2026-05-09 06:03 | 22.39354 | 52.32783 | 37939 ft | 465 kts | 271° |
| 2026-05-09 06:03 | 22.39792 | 52.25807 | 37941 ft | 465 kts | 270° |
| 2026-05-09 06:04 | 22.40226 | 52.18848 | 37942 ft | 464 kts | 270° |
| 2026-05-09 06:04 | 22.40682 | 52.11921 | 37946 ft | 465 kts | 272° |
| 2026-05-09 06:05 | 22.41255 | 52.04944 | 37941 ft | 467 kts | 271° |
| 2026-05-09 06:05 | 22.41826 | 51.97944 | 37945 ft | 468 kts | 272° |
| 2026-05-09 06:06 | 22.42399 | 51.90959 | 37945 ft | 466 kts | 271° |
| 2026-05-09 06:06 | 22.42956 | 51.84033 | 37942 ft | 465 kts | 271° |
| 2026-05-09 06:07 | 22.43520 | 51.77071 | 37941 ft | 464 kts | 271° |
| 2026-05-09 06:07 | 22.44076 | 51.70109 | 37937 ft | 466 kts | 271° |
| 2026-05-09 06:08 | 22.44635 | 51.63124 | 37940 ft | 466 kts | 271° |
| 2026-05-09 06:08 | 22.45186 | 51.56165 | 37943 ft | 464 kts | 271° |
| 2026-05-09 06:09 | 22.45730 | 51.49272 | 37950 ft | 463 kts | 271° |
| 2026-05-09 06:09 | 22.46274 | 51.42331 | 37951 ft | 463 kts | 271° |
| 2026-05-09 06:10 | 22.46816 | 51.35390 | 37948 ft | 464 kts | 271° |
| 2026-05-09 06:10 | 22.47355 | 51.28444 | 37959 ft | 463 kts | 271° |
| 2026-05-09 06:11 | 22.47886 | 51.21553 | 37957 ft | 463 kts | 271° |
| 2026-05-09 06:11 | 22.48417 | 51.14626 | 37948 ft | 462 kts | 271° |
| 2026-05-09 06:12 | 22.48945 | 51.07704 | 37950 ft | 462 kts | 271° |
| 2026-05-09 06:12 | 22.49471 | 51.00761 | 37958 ft | 464 kts | 271° |
| 2026-05-09 06:13 | 22.49993 | 50.93849 | 37956 ft | 465 kts | 271° |
| 2026-05-09 06:13 | 22.50515 | 50.86890 | 37959 ft | 463 kts | 270° |
| 2026-05-09 06:14 | 22.51031 | 50.79962 | 37954 ft | 462 kts | 270° |
| 2026-05-09 06:14 | 22.51543 | 50.73045 | 37960 ft | 461 kts | 270° |
| 2026-05-09 06:15 | 22.52049 | 50.66177 | 37958 ft | 461 kts | 270° |
| 2026-05-09 06:15 | 22.52556 | 50.59262 | 37953 ft | 461 kts | 270° |
| 2026-05-09 06:16 | 22.53059 | 50.52354 | 37959 ft | 461 kts | 270° |
| 2026-05-09 06:16 | 22.53560 | 50.45432 | 37956 ft | 462 kts | 270° |
| 2026-05-09 06:17 | 22.54055 | 50.38547 | 37958 ft | 463 kts | 270° |
| 2026-05-09 06:17 | 22.54551 | 50.31605 | 37964 ft | 464 kts | 270° |
| 2026-05-09 06:18 | 22.55046 | 50.24648 | 37960 ft | 464 kts | 270° |
| 2026-05-09 06:18 | 22.55537 | 50.17702 | 37964 ft | 462 kts | 270° |
| 2026-05-09 06:19 | 22.56019 | 50.10831 | 37956 ft | 460 kts | 270° |
| 2026-05-09 06:19 | 22.56501 | 50.03928 | 37960 ft | 460 kts | 270° |
| 2026-05-09 06:20 | 22.56980 | 49.97013 | 37958 ft | 462 kts | 270° |
| 2026-05-09 06:20 | 22.57457 | 49.90089 | 37959 ft | 463 kts | 270° |
| 2026-05-09 06:21 | 22.57931 | 49.83175 | 37965 ft | 464 kts | 270° |
| 2026-05-09 06:21 | 22.58404 | 49.76225 | 37965 ft | 463 kts | 270° |
| 2026-05-09 06:22 | 22.58873 | 49.69286 | 37971 ft | 462 kts | 270° |
| 2026-05-09 06:22 | 22.59339 | 49.62348 | 37957 ft | 462 kts | 270° |
| 2026-05-09 06:23 | 22.59799 | 49.55463 | 37963 ft | 461 kts | 270° |
| 2026-05-09 06:23 | 22.60256 | 49.48570 | 37960 ft | 459 kts | 269° |
| 2026-05-09 06:24 | 22.60709 | 49.41684 | 37962 ft | 459 kts | 269° |
| 2026-05-09 06:24 | 22.61161 | 49.34783 | 37980 ft | 460 kts | 269° |
| 2026-05-09 06:25 | 22.61607 | 49.27922 | 37964 ft | 460 kts | 269° |
| 2026-05-09 06:25 | 22.62053 | 49.21021 | 37970 ft | 459 kts | 269° |
| 2026-05-09 06:26 | 22.62494 | 49.14141 | 37967 ft | 458 kts | 269° |
| 2026-05-09 06:26 | 22.62933 | 49.07253 | 37975 ft | 458 kts | 269° |
| 2026-05-09 06:27 | 22.63366 | 49.00417 | 37974 ft | 458 kts | 269° |
| 2026-05-09 06:27 | 22.63799 | 48.93533 | 37976 ft | 458 kts | 269° |
| 2026-05-09 06:28 | 22.64229 | 48.86662 | 37980 ft | 456 kts | 269° |
| 2026-05-09 06:28 | 22.64651 | 48.79827 | 37983 ft | 455 kts | 269° |
| 2026-05-09 06:29 | 22.65070 | 48.73028 | 37980 ft | 456 kts | 269° |
| 2026-05-09 06:29 | 22.65489 | 48.66173 | 37983 ft | 457 kts | 269° |
| 2026-05-09 06:30 | 22.65907 | 48.59311 | 37988 ft | 456 kts | 269° |
| 2026-05-09 06:30 | 22.66319 | 48.52472 | 37986 ft | 455 kts | 269° |
| 2026-05-09 06:31 | 22.66728 | 48.45646 | 37987 ft | 454 kts | 269° |
| 2026-05-09 06:31 | 22.67130 | 48.38874 | 37984 ft | 453 kts | 269° |
| 2026-05-09 06:32 | 22.67532 | 48.32061 | 37985 ft | 454 kts | 269° |
| 2026-05-09 06:33 | 22.68132 | 48.21811 | 37991 ft | 454 kts | 268° |
| 2026-05-09 06:33 | 22.68543 | 48.15046 | 37994 ft | 454 kts | 272° |
| 2026-05-09 06:34 | 22.70160 | 48.08349 | 38008 ft | 469 kts | 288° |
| 2026-05-09 06:34 | 22.71660 | 48.05188 | 38008 ft | 477 kts | 296° |
| 2026-05-09 06:34 | 22.76002 | 47.99627 | 38010 ft | 494 kts | 313° |
| 2026-05-09 06:35 | 22.81741 | 47.95402 | 37997 ft | 501 kts | 321° |
| 2026-05-09 06:35 | 22.87626 | 47.91456 | 37999 ft | 499 kts | 321° |
| 2026-05-09 06:36 | 22.93526 | 47.87489 | 37999 ft | 498 kts | 321° |
| 2026-05-09 06:36 | 22.99398 | 47.83538 | 37998 ft | 497 kts | 321° |
| 2026-05-09 06:37 | 23.05298 | 47.79565 | 38005 ft | 498 kts | 321° |
| 2026-05-09 06:37 | 23.11163 | 47.75608 | 38008 ft | 496 kts | 321° |
| 2026-05-09 06:38 | 23.16985 | 47.71676 | 38011 ft | 496 kts | 321° |
| 2026-05-09 06:38 | 23.22842 | 47.67719 | 38011 ft | 496 kts | 320° |
| 2026-05-09 06:39 | 23.28688 | 47.63764 | 38008 ft | 494 kts | 320° |
| 2026-05-09 06:39 | 23.34528 | 47.59807 | 38019 ft | 495 kts | 320° |
| 2026-05-09 06:40 | 23.40336 | 47.55871 | 38019 ft | 494 kts | 320° |
| 2026-05-09 06:40 | 23.46167 | 47.51912 | 38018 ft | 494 kts | 320° |
| 2026-05-09 06:41 | 23.51998 | 47.47954 | 38021 ft | 494 kts | 320° |
| 2026-05-09 06:41 | 23.57831 | 47.43991 | 38024 ft | 494 kts | 320° |
| 2026-05-09 06:42 | 23.63618 | 47.40054 | 38020 ft | 493 kts | 320° |
| 2026-05-09 06:42 | 23.69418 | 47.36106 | 38025 ft | 490 kts | 320° |
| 2026-05-09 06:43 | 23.75190 | 47.32169 | 38021 ft | 490 kts | 320° |
| 2026-05-09 06:43 | 23.80975 | 47.28222 | 38039 ft | 491 kts | 320° |
| 2026-05-09 06:44 | 23.86707 | 47.24309 | 38025 ft | 488 kts | 319° |
| 2026-05-09 06:44 | 23.92456 | 47.20375 | 38031 ft | 488 kts | 319° |
| 2026-05-09 06:45 | 23.98211 | 47.16437 | 38032 ft | 488 kts | 319° |
| 2026-05-09 06:45 | 24.03961 | 47.12495 | 38036 ft | 488 kts | 319° |
| 2026-05-09 06:46 | 24.09671 | 47.08579 | 38034 ft | 487 kts | 320° |
| 2026-05-09 06:46 | 24.15865 | 47.05318 | 38045 ft | 498 kts | 328° |
| 2026-05-09 06:47 | 24.22252 | 47.02364 | 38037 ft | 497 kts | 328° |
| 2026-05-09 06:47 | 24.28609 | 46.99400 | 38037 ft | 496 kts | 328° |
| 2026-05-09 06:48 | 24.34959 | 46.96445 | 38028 ft | 496 kts | 328° |
| 2026-05-09 06:48 | 24.41260 | 46.93508 | 38047 ft | 493 kts | 328° |
| 2026-05-09 06:49 | 24.47547 | 46.90572 | 38047 ft | 491 kts | 328° |
| 2026-05-09 06:49 | 24.53858 | 46.87622 | 38051 ft | 494 kts | 328° |
| 2026-05-09 06:50 | 24.60197 | 46.84661 | 38051 ft | 494 kts | 327° |
| 2026-05-09 06:50 | 24.66445 | 46.81734 | 38057 ft | 490 kts | 327° |
| 2026-05-09 06:51 | 24.72719 | 46.78791 | 38067 ft | 490 kts | 327° |
| 2026-05-09 06:51 | 24.79001 | 46.75845 | 38077 ft | 492 kts | 327° |
| 2026-05-09 06:52 | 24.85317 | 46.72875 | 38083 ft | 495 kts | 327° |
| 2026-05-09 06:52 | 24.91603 | 46.69922 | 38083 ft | 494 kts | 327° |
| 2026-05-09 06:53 | 24.97726 | 46.66654 | 38103 ft | 480 kts | 316° |
| 2026-05-09 06:53 | 25.02789 | 46.62033 | 38071 ft | 471 kts | 307° |
| 2026-05-09 06:54 | 25.07619 | 46.57123 | 38073 ft | 472 kts | 307° |
| 2026-05-09 06:54 | 25.12399 | 46.52229 | 38064 ft | 473 kts | 307° |
| 2026-05-09 06:55 | 25.17228 | 46.47295 | 38064 ft | 473 kts | 307° |
| 2026-05-09 06:55 | 25.22039 | 46.42368 | 38057 ft | 471 kts | 307° |
| 2026-05-09 06:56 | 25.26805 | 46.37483 | 38058 ft | 470 kts | 307° |
| 2026-05-09 06:56 | 25.31586 | 46.32576 | 38047 ft | 469 kts | 307° |
| 2026-05-09 06:57 | 25.36357 | 46.27673 | 38052 ft | 469 kts | 307° |
| 2026-05-09 06:57 | 25.41109 | 46.22785 | 38059 ft | 470 kts | 307° |
| 2026-05-09 06:58 | 25.45903 | 46.17849 | 38053 ft | 471 kts | 307° |
| 2026-05-09 06:58 | 25.50693 | 46.12912 | 38046 ft | 470 kts | 307° |
| 2026-05-09 06:59 | 25.55471 | 46.07979 | 38045 ft | 469 kts | 307° |
| 2026-05-09 06:59 | 25.60244 | 46.03048 | 38044 ft | 469 kts | 307° |
| 2026-05-09 07:00 | 25.65014 | 45.98113 | 38054 ft | 469 kts | 307° |
| 2026-05-09 07:00 | 25.69738 | 45.93220 | 38051 ft | 468 kts | 307° |
| 2026-05-09 07:01 | 25.74492 | 45.88290 | 38054 ft | 468 kts | 307° |
| 2026-05-09 07:01 | 25.79250 | 45.83351 | 38058 ft | 469 kts | 307° |
| 2026-05-09 07:02 | 25.84007 | 45.78408 | 38061 ft | 468 kts | 307° |